sensor_id;sensor_type;location;lat;lon;timestamp;P1;durP1;ratioP1;P2;durP2;ratioP2
7051;SDS011;3567;52.444;13.556;2023-06-10T00:00:41;13.65;;;4.93;;
7051;SDS011;3567;52.444;13.556;2023-06-10T00:03:07;8.90;;;4.88;;
7051;SDS011;3567;52.444;13.556;2023-06-10T00:05:33;9.25;;;4.63;;
7051;SDS011;3567;52.444;13.556;2023-06-10T00:07:59;10.07;;;5.18;;
7051;SDS011;3567;52.444;13.556;2023-06-10T00:10:26;10.48;;;3.85;;
7051;SDS011;3567;52.444;13.556;2023-06-10T00:12:52;7.95;;;4.07;;
7051;SDS011;3567;52.444;13.556;2023-06-10T00:15:17;11.63;;;4.57;;
7051;SDS011;3567;52.444;13.556;2023-06-10T00:17:42;11.45;;;4.63;;
7051;SDS011;3567;52.444;13.556;2023-06-10T00:20:08;14.07;;;5.70;;
7051;SDS011;3567;52.444;13.556;2023-06-10T00:22:36;8.57;;;4.57;;
7051;SDS011;3567;52.444;13.556;2023-06-10T00:25:04;11.15;;;5.03;;
7051;SDS011;3567;52.444;13.556;2023-06-10T00:27:31;9.38;;;4.40;;
7051;SDS011;3567;52.444;13.556;2023-06-10T00:30:00;8.50;;;5.22;;
7051;SDS011;3567;52.444;13.556;2023-06-10T00:32:35;10.98;;;4.35;;
7051;SDS011;3567;52.444;13.556;2023-06-10T00:35:01;8.48;;;4.30;;
7051;SDS011;3567;52.444;13.556;2023-06-10T00:37:27;10.73;;;5.15;;
7051;SDS011;3567;52.444;13.556;2023-06-10T00:39:53;11.20;;;4.85;;
7051;SDS011;3567;52.444;13.556;2023-06-10T00:42:19;11.68;;;5.25;;
7051;SDS011;3567;52.444;13.556;2023-06-10T00:44:44;9.32;;;4.40;;
7051;SDS011;3567;52.444;13.556;2023-06-10T00:47:10;15.98;;;5.47;;
7051;SDS011;3567;52.444;13.556;2023-06-10T00:49:35;9.95;;;5.05;;
7051;SDS011;3567;52.444;13.556;2023-06-10T00:52:01;10.10;;;5.13;;
7051;SDS011;3567;52.444;13.556;2023-06-10T00:54:29;10.10;;;4.82;;
7051;SDS011;3567;52.444;13.556;2023-06-10T00:56:55;11.93;;;5.10;;
7051;SDS011;3567;52.444;13.556;2023-06-10T00:59:21;9.75;;;4.75;;
7051;SDS011;3567;52.444;13.556;2023-06-10T01:01:47;14.20;;;5.50;;
7051;SDS011;3567;52.444;13.556;2023-06-10T01:04:12;14.43;;;5.88;;
7051;SDS011;3567;52.444;13.556;2023-06-10T01:12:26;14.57;;;5.15;;
7051;SDS011;3567;52.444;13.556;2023-06-10T01:14:57;13.23;;;5.43;;
7051;SDS011;3567;52.444;13.556;2023-06-10T01:17:23;10.63;;;5.40;;
7051;SDS011;3567;52.444;13.556;2023-06-10T01:19:58;15.27;;;5.90;;
7051;SDS011;3567;52.444;13.556;2023-06-10T01:22:24;9.75;;;4.97;;
7051;SDS011;3567;52.444;13.556;2023-06-10T01:24:56;13.07;;;5.38;;
7051;SDS011;3567;52.444;13.556;2023-06-10T01:27:23;14.00;;;5.35;;
7051;SDS011;3567;52.444;13.556;2023-06-10T01:29:54;9.60;;;5.32;;
7051;SDS011;3567;52.444;13.556;2023-06-10T01:32:44;8.50;;;5.72;;
7051;SDS011;3567;52.444;13.556;2023-06-10T01:35:13;11.30;;;5.28;;
7051;SDS011;3567;52.444;13.556;2023-06-10T01:37:39;15.32;;;5.75;;
7051;SDS011;3567;52.444;13.556;2023-06-10T01:40:07;13.48;;;4.65;;
7051;SDS011;3567;52.444;13.556;2023-06-10T01:42:34;11.57;;;5.70;;
7051;SDS011;3567;52.444;13.556;2023-06-10T01:45:00;12.63;;;5.40;;
7051;SDS011;3567;52.444;13.556;2023-06-10T01:47:25;9.80;;;5.53;;
7051;SDS011;3567;52.444;13.556;2023-06-10T01:49:51;10.75;;;5.50;;
7051;SDS011;3567;52.444;13.556;2023-06-10T01:52:16;10.23;;;5.18;;
7051;SDS011;3567;52.444;13.556;2023-06-10T01:54:42;11.38;;;4.50;;
7051;SDS011;3567;52.444;13.556;2023-06-10T01:57:07;14.77;;;5.68;;
7051;SDS011;3567;52.444;13.556;2023-06-10T01:59:33;12.02;;;5.28;;
7051;SDS011;3567;52.444;13.556;2023-06-10T02:01:58;10.45;;;5.40;;
7051;SDS011;3567;52.444;13.556;2023-06-10T02:04:23;9.75;;;5.20;;
7051;SDS011;3567;52.444;13.556;2023-06-10T02:06:49;9.73;;;4.43;;
7051;SDS011;3567;52.444;13.556;2023-06-10T02:09:15;9.20;;;5.47;;
7051;SDS011;3567;52.444;13.556;2023-06-10T02:11:40;11.45;;;5.30;;
7051;SDS011;3567;52.444;13.556;2023-06-10T02:14:06;12.90;;;5.53;;
7051;SDS011;3567;52.444;13.556;2023-06-10T02:16:31;9.43;;;4.82;;
7051;SDS011;3567;52.444;13.556;2023-06-10T02:18:56;8.57;;;5.30;;
7051;SDS011;3567;52.444;13.556;2023-06-10T02:21:22;9.40;;;5.57;;
7051;SDS011;3567;52.444;13.556;2023-06-10T02:23:48;9.60;;;4.82;;
7051;SDS011;3567;52.444;13.556;2023-06-10T02:26:13;12.13;;;5.47;;
7051;SDS011;3567;52.444;13.556;2023-06-10T02:28:42;14.70;;;5.57;;
7051;SDS011;3567;52.444;13.556;2023-06-10T02:31:07;12.25;;;5.63;;
7051;SDS011;3567;52.444;13.556;2023-06-10T02:33:33;9.90;;;5.68;;
7051;SDS011;3567;52.444;13.556;2023-06-10T02:35:58;13.93;;;5.75;;
7051;SDS011;3567;52.444;13.556;2023-06-10T02:38:24;9.18;;;5.20;;
7051;SDS011;3567;52.444;13.556;2023-06-10T02:40:49;16.80;;;6.50;;
7051;SDS011;3567;52.444;13.556;2023-06-10T02:43:15;11.38;;;6.45;;
7051;SDS011;3567;52.444;13.556;2023-06-10T02:45:40;11.15;;;6.15;;
7051;SDS011;3567;52.444;13.556;2023-06-10T02:48:05;14.55;;;6.00;;
7051;SDS011;3567;52.444;13.556;2023-06-10T02:50:31;11.15;;;6.38;;
7051;SDS011;3567;52.444;13.556;2023-06-10T02:52:57;15.55;;;5.82;;
7051;SDS011;3567;52.444;13.556;2023-06-10T02:55:22;12.25;;;5.95;;
7051;SDS011;3567;52.444;13.556;2023-06-10T02:57:51;8.85;;;6.40;;
7051;SDS011;3567;52.444;13.556;2023-06-10T03:00:17;13.50;;;5.85;;
7051;SDS011;3567;52.444;13.556;2023-06-10T03:02:45;14.00;;;5.95;;
7051;SDS011;3567;52.444;13.556;2023-06-10T03:05:10;14.25;;;6.18;;
7051;SDS011;3567;52.444;13.556;2023-06-10T03:07:38;14.00;;;5.88;;
7051;SDS011;3567;52.444;13.556;2023-06-10T03:10:04;11.18;;;5.80;;
7051;SDS011;3567;52.444;13.556;2023-06-10T03:12:30;16.70;;;6.57;;
7051;SDS011;3567;52.444;13.556;2023-06-10T03:14:56;10.80;;;6.18;;
7051;SDS011;3567;52.444;13.556;2023-06-10T03:17:21;11.85;;;6.43;;
7051;SDS011;3567;52.444;13.556;2023-06-10T03:19:46;10.05;;;6.28;;
7051;SDS011;3567;52.444;13.556;2023-06-10T03:22:16;11.77;;;5.97;;
7051;SDS011;3567;52.444;13.556;2023-06-10T03:24:41;12.82;;;6.40;;
7051;SDS011;3567;52.444;13.556;2023-06-10T03:27:11;17.75;;;8.10;;
7051;SDS011;3567;52.444;13.556;2023-06-10T03:29:38;12.13;;;6.15;;
7051;SDS011;3567;52.444;13.556;2023-06-10T03:32:04;9.05;;;6.10;;
7051;SDS011;3567;52.444;13.556;2023-06-10T03:34:29;14.48;;;6.72;;
7051;SDS011;3567;52.444;13.556;2023-06-10T03:36:55;10.57;;;6.72;;
7051;SDS011;3567;52.444;13.556;2023-06-10T03:39:21;11.95;;;6.38;;
7051;SDS011;3567;52.444;13.556;2023-06-10T03:41:48;13.45;;;6.93;;
7051;SDS011;3567;52.444;13.556;2023-06-10T03:44:13;10.10;;;6.20;;
7051;SDS011;3567;52.444;13.556;2023-06-10T03:46:38;14.77;;;6.05;;
7051;SDS011;3567;52.444;13.556;2023-06-10T03:49:04;17.00;;;6.43;;
7051;SDS011;3567;52.444;13.556;2023-06-10T03:51:29;15.15;;;7.18;;
7051;SDS011;3567;52.444;13.556;2023-06-10T03:53:55;13.52;;;6.85;;
7051;SDS011;3567;52.444;13.556;2023-06-10T03:56:20;13.82;;;6.43;;
7051;SDS011;3567;52.444;13.556;2023-06-10T03:58:46;14.50;;;6.28;;
7051;SDS011;3567;52.444;13.556;2023-06-10T04:01:11;12.23;;;7.00;;
7051;SDS011;3567;52.444;13.556;2023-06-10T04:03:38;12.63;;;5.68;;
7051;SDS011;3567;52.444;13.556;2023-06-10T04:06:04;11.65;;;6.47;;
7051;SDS011;3567;52.444;13.556;2023-06-10T04:08:30;13.32;;;6.70;;
7051;SDS011;3567;52.444;13.556;2023-06-10T04:10:56;9.63;;;6.32;;
7051;SDS011;3567;52.444;13.556;2023-06-10T04:13:22;13.98;;;6.32;;
7051;SDS011;3567;52.444;13.556;2023-06-10T04:15:48;10.45;;;5.70;;
7051;SDS011;3567;52.444;13.556;2023-06-10T04:18:13;14.43;;;7.18;;
7051;SDS011;3567;52.444;13.556;2023-06-10T04:20:38;10.63;;;6.05;;
7051;SDS011;3567;52.444;13.556;2023-06-10T04:23:04;9.82;;;6.72;;
7051;SDS011;3567;52.444;13.556;2023-06-10T04:25:29;14.73;;;5.85;;
7051;SDS011;3567;52.444;13.556;2023-06-10T04:27:55;11.30;;;6.13;;
7051;SDS011;3567;52.444;13.556;2023-06-10T04:30:20;8.73;;;5.97;;
7051;SDS011;3567;52.444;13.556;2023-06-10T04:32:47;14.52;;;6.47;;
7051;SDS011;3567;52.444;13.556;2023-06-10T04:35:12;10.90;;;5.68;;
7051;SDS011;3567;52.444;13.556;2023-06-10T04:37:39;8.30;;;5.85;;
7051;SDS011;3567;52.444;13.556;2023-06-10T04:40:06;14.05;;;6.53;;
7051;SDS011;3567;52.444;13.556;2023-06-10T04:42:32;14.63;;;6.93;;
7051;SDS011;3567;52.444;13.556;2023-06-10T04:44:58;11.05;;;5.75;;
7051;SDS011;3567;52.444;13.556;2023-06-10T04:47:23;14.32;;;6.13;;
7051;SDS011;3567;52.444;13.556;2023-06-10T04:49:48;10.90;;;5.93;;
7051;SDS011;3567;52.444;13.556;2023-06-10T04:52:14;17.33;;;6.20;;
7051;SDS011;3567;52.444;13.556;2023-06-10T04:54:39;13.65;;;5.90;;
7051;SDS011;3567;52.444;13.556;2023-06-10T04:57:05;11.77;;;5.68;;
7051;SDS011;3567;52.444;13.556;2023-06-10T04:59:32;9.88;;;5.97;;
7051;SDS011;3567;52.444;13.556;2023-06-10T05:01:58;10.48;;;6.40;;
7051;SDS011;3567;52.444;13.556;2023-06-10T05:04:23;13.60;;;5.95;;
7051;SDS011;3567;52.444;13.556;2023-06-10T05:06:49;10.63;;;6.18;;
7051;SDS011;3567;52.444;13.556;2023-06-10T05:09:14;12.05;;;5.88;;
7051;SDS011;3567;52.444;13.556;2023-06-10T05:11:40;10.55;;;5.13;;
7051;SDS011;3567;52.444;13.556;2023-06-10T05:14:05;6.68;;;5.43;;
7051;SDS011;3567;52.444;13.556;2023-06-10T05:16:31;8.23;;;6.15;;
7051;SDS011;3567;52.444;13.556;2023-06-10T05:18:57;8.93;;;5.78;;
7051;SDS011;3567;52.444;13.556;2023-06-10T05:21:22;8.05;;;5.72;;
7051;SDS011;3567;52.444;13.556;2023-06-10T05:23:47;8.38;;;4.82;;
7051;SDS011;3567;52.444;13.556;2023-06-10T05:26:13;8.77;;;5.45;;
7051;SDS011;3567;52.444;13.556;2023-06-10T05:28:39;9.63;;;6.10;;
7051;SDS011;3567;52.444;13.556;2023-06-10T05:31:04;10.38;;;5.28;;
7051;SDS011;3567;52.444;13.556;2023-06-10T05:33:29;10.65;;;5.78;;
7051;SDS011;3567;52.444;13.556;2023-06-10T05:35:55;7.15;;;5.40;;
7051;SDS011;3567;52.444;13.556;2023-06-10T05:38:20;10.52;;;5.20;;
7051;SDS011;3567;52.444;13.556;2023-06-10T05:40:46;12.55;;;5.60;;
7051;SDS011;3567;52.444;13.556;2023-06-10T05:43:11;12.43;;;6.40;;
7051;SDS011;3567;52.444;13.556;2023-06-10T05:45:37;7.72;;;5.85;;
7051;SDS011;3567;52.444;13.556;2023-06-10T05:48:02;9.38;;;5.47;;
7051;SDS011;3567;52.444;13.556;2023-06-10T05:50:28;8.95;;;6.15;;
7051;SDS011;3567;52.444;13.556;2023-06-10T05:52:53;8.48;;;6.28;;
7051;SDS011;3567;52.444;13.556;2023-06-10T05:55:19;11.63;;;5.10;;
7051;SDS011;3567;52.444;13.556;2023-06-10T05:57:45;8.32;;;6.07;;
7051;SDS011;3567;52.444;13.556;2023-06-10T06:00:10;9.55;;;6.65;;
7051;SDS011;3567;52.444;13.556;2023-06-10T06:02:36;12.07;;;5.40;;
7051;SDS011;3567;52.444;13.556;2023-06-10T06:05:02;8.52;;;5.93;;
7051;SDS011;3567;52.444;13.556;2023-06-10T06:07:27;12.43;;;6.22;;
7051;SDS011;3567;52.444;13.556;2023-06-10T06:09:53;9.27;;;6.05;;
7051;SDS011;3567;52.444;13.556;2023-06-10T06:12:19;7.85;;;5.85;;
7051;SDS011;3567;52.444;13.556;2023-06-10T06:14:44;9.82;;;5.80;;
7051;SDS011;3567;52.444;13.556;2023-06-10T06:17:09;11.63;;;5.75;;
7051;SDS011;3567;52.444;13.556;2023-06-10T06:19:35;8.25;;;6.60;;
7051;SDS011;3567;52.444;13.556;2023-06-10T06:22:00;9.27;;;5.88;;
7051;SDS011;3567;52.444;13.556;2023-06-10T06:24:26;13.13;;;6.28;;
7051;SDS011;3567;52.444;13.556;2023-06-10T06:26:51;9.13;;;6.00;;
7051;SDS011;3567;52.444;13.556;2023-06-10T06:29:17;12.00;;;6.38;;
7051;SDS011;3567;52.444;13.556;2023-06-10T06:31:43;12.25;;;6.72;;
7051;SDS011;3567;52.444;13.556;2023-06-10T06:34:08;12.27;;;6.70;;
7051;SDS011;3567;52.444;13.556;2023-06-10T06:36:33;9.98;;;6.50;;
7051;SDS011;3567;52.444;13.556;2023-06-10T06:38:59;10.27;;;7.07;;
7051;SDS011;3567;52.444;13.556;2023-06-10T06:41:27;8.13;;;6.60;;
7051;SDS011;3567;52.444;13.556;2023-06-10T06:43:53;10.82;;;5.53;;
7051;SDS011;3567;52.444;13.556;2023-06-10T06:46:19;11.68;;;6.65;;
7051;SDS011;3567;52.444;13.556;2023-06-10T06:48:44;13.10;;;6.82;;
7051;SDS011;3567;52.444;13.556;2023-06-10T06:51:10;9.15;;;6.50;;
7051;SDS011;3567;52.444;13.556;2023-06-10T06:53:35;8.43;;;6.47;;
7051;SDS011;3567;52.444;13.556;2023-06-10T06:56:01;11.80;;;6.13;;
7051;SDS011;3567;52.444;13.556;2023-06-10T06:58:27;7.45;;;6.32;;
7051;SDS011;3567;52.444;13.556;2023-06-10T07:00:53;12.98;;;6.22;;
7051;SDS011;3567;52.444;13.556;2023-06-10T07:03:18;12.35;;;7.20;;
7051;SDS011;3567;52.444;13.556;2023-06-10T07:05:44;9.55;;;6.75;;
7051;SDS011;3567;52.444;13.556;2023-06-10T07:08:09;7.40;;;5.72;;
7051;SDS011;3567;52.444;13.556;2023-06-10T07:10:34;7.55;;;6.45;;
7051;SDS011;3567;52.444;13.556;2023-06-10T07:13:00;15.02;;;7.20;;
7051;SDS011;3567;52.444;13.556;2023-06-10T07:15:25;8.70;;;6.22;;
7051;SDS011;3567;52.444;13.556;2023-06-10T07:17:50;12.50;;;7.15;;
7051;SDS011;3567;52.444;13.556;2023-06-10T07:20:16;8.20;;;6.95;;
7051;SDS011;3567;52.444;13.556;2023-06-10T07:22:42;8.18;;;6.07;;
7051;SDS011;3567;52.444;13.556;2023-06-10T07:25:07;7.03;;;6.32;;
7051;SDS011;3567;52.444;13.556;2023-06-10T07:27:33;8.93;;;6.53;;
7051;SDS011;3567;52.444;13.556;2023-06-10T07:29:58;7.18;;;6.47;;
7051;SDS011;3567;52.444;13.556;2023-06-10T07:32:25;12.55;;;6.60;;
7051;SDS011;3567;52.444;13.556;2023-06-10T07:34:51;8.20;;;7.00;;
7051;SDS011;3567;52.444;13.556;2023-06-10T07:37:16;9.90;;;7.43;;
7051;SDS011;3567;52.444;13.556;2023-06-10T07:39:42;14.27;;;7.75;;
7051;SDS011;3567;52.444;13.556;2023-06-10T07:42:08;11.15;;;7.22;;
7051;SDS011;3567;52.444;13.556;2023-06-10T07:44:33;9.07;;;7.10;;
7051;SDS011;3567;52.444;13.556;2023-06-10T07:46:59;10.55;;;7.40;;
7051;SDS011;3567;52.444;13.556;2023-06-10T07:49:24;8.23;;;6.90;;
7051;SDS011;3567;52.444;13.556;2023-06-10T07:51:50;9.82;;;6.80;;
7051;SDS011;3567;52.444;13.556;2023-06-10T07:54:15;10.90;;;7.20;;
7051;SDS011;3567;52.444;13.556;2023-06-10T07:56:40;9.80;;;7.65;;
7051;SDS011;3567;52.444;13.556;2023-06-10T07:59:06;12.68;;;6.82;;
7051;SDS011;3567;52.444;13.556;2023-06-10T08:01:31;9.95;;;6.72;;
7051;SDS011;3567;52.444;13.556;2023-06-10T08:03:58;7.80;;;6.78;;
7051;SDS011;3567;52.444;13.556;2023-06-10T08:06:23;9.95;;;5.88;;
7051;SDS011;3567;52.444;13.556;2023-06-10T08:08:48;7.65;;;6.75;;
7051;SDS011;3567;52.444;13.556;2023-06-10T08:11:14;10.45;;;6.85;;
7051;SDS011;3567;52.444;13.556;2023-06-10T08:13:39;8.93;;;6.07;;
7051;SDS011;3567;52.444;13.556;2023-06-10T08:16:05;9.40;;;6.57;;
7051;SDS011;3567;52.444;13.556;2023-06-10T08:18:30;7.60;;;6.68;;
7051;SDS011;3567;52.444;13.556;2023-06-10T08:20:56;8.85;;;6.93;;
7051;SDS011;3567;52.444;13.556;2023-06-10T08:23:22;7.10;;;6.50;;
7051;SDS011;3567;52.444;13.556;2023-06-10T08:25:47;7.55;;;6.85;;
7051;SDS011;3567;52.444;13.556;2023-06-10T08:28:12;10.57;;;6.32;;
7051;SDS011;3567;52.444;13.556;2023-06-10T08:30:38;8.88;;;6.63;;
7051;SDS011;3567;52.444;13.556;2023-06-10T08:33:03;9.23;;;6.65;;
7051;SDS011;3567;52.444;13.556;2023-06-10T08:35:28;11.27;;;7.25;;
7051;SDS011;3567;52.444;13.556;2023-06-10T08:37:54;8.40;;;6.47;;
7051;SDS011;3567;52.444;13.556;2023-06-10T08:40:19;7.18;;;6.28;;
7051;SDS011;3567;52.444;13.556;2023-06-10T08:42:49;8.35;;;6.47;;
7051;SDS011;3567;52.444;13.556;2023-06-10T08:45:30;7.45;;;6.18;;
7051;SDS011;3567;52.444;13.556;2023-06-10T08:47:57;8.13;;;5.95;;
7051;SDS011;3567;52.444;13.556;2023-06-10T08:50:22;7.28;;;6.38;;
7051;SDS011;3567;52.444;13.556;2023-06-10T08:52:48;12.38;;;6.75;;
7051;SDS011;3567;52.444;13.556;2023-06-10T08:55:21;17.27;;;6.40;;
7051;SDS011;3567;52.444;13.556;2023-06-10T08:57:52;11.90;;;6.47;;
7051;SDS011;3567;52.444;13.556;2023-06-10T09:00:18;10.30;;;6.30;;
7051;SDS011;3567;52.444;13.556;2023-06-10T09:02:44;11.02;;;6.07;;
7051;SDS011;3567;52.444;13.556;2023-06-10T09:05:09;8.07;;;6.63;;
7051;SDS011;3567;52.444;13.556;2023-06-10T09:07:35;7.63;;;6.22;;
7051;SDS011;3567;52.444;13.556;2023-06-10T09:10:02;8.63;;;6.55;;
7051;SDS011;3567;52.444;13.556;2023-06-10T09:12:29;14.10;;;6.57;;
7051;SDS011;3567;52.444;13.556;2023-06-10T09:14:55;11.30;;;6.57;;
7051;SDS011;3567;52.444;13.556;2023-06-10T09:17:20;8.88;;;6.15;;
7051;SDS011;3567;52.444;13.556;2023-06-10T09:19:47;13.98;;;7.03;;
7051;SDS011;3567;52.444;13.556;2023-06-10T09:22:12;6.80;;;6.20;;
7051;SDS011;3567;52.444;13.556;2023-06-10T09:24:38;6.60;;;5.50;;
7051;SDS011;3567;52.444;13.556;2023-06-10T09:27:04;7.07;;;6.38;;
7051;SDS011;3567;52.444;13.556;2023-06-10T09:29:31;10.60;;;6.85;;
7051;SDS011;3567;52.444;13.556;2023-06-10T09:32:15;7.72;;;6.30;;
7051;SDS011;3567;52.444;13.556;2023-06-10T09:34:42;9.40;;;5.65;;
7051;SDS011;3567;52.444;13.556;2023-06-10T09:37:09;11.13;;;6.07;;
7051;SDS011;3567;52.444;13.556;2023-06-10T09:39:37;8.75;;;5.82;;
7051;SDS011;3567;52.444;13.556;2023-06-10T09:42:15;6.97;;;6.22;;
7051;SDS011;3567;52.444;13.556;2023-06-10T09:44:50;13.70;;;5.85;;
7051;SDS011;3567;52.444;13.556;2023-06-10T09:47:20;9.35;;;6.20;;
7051;SDS011;3567;52.444;13.556;2023-06-10T09:49:46;8.35;;;6.30;;
7051;SDS011;3567;52.444;13.556;2023-06-10T09:52:11;30.00;;;7.47;;
7051;SDS011;3567;52.444;13.556;2023-06-10T09:54:37;30.60;;;6.97;;
7051;SDS011;3567;52.444;13.556;2023-06-10T09:57:06;10.18;;;6.15;;
7051;SDS011;3567;52.444;13.556;2023-06-10T09:59:34;7.57;;;6.10;;
7051;SDS011;3567;52.444;13.556;2023-06-10T10:02:02;6.45;;;5.82;;
7051;SDS011;3567;52.444;13.556;2023-06-10T10:04:29;8.70;;;5.97;;
7051;SDS011;3567;52.444;13.556;2023-06-10T10:06:56;9.70;;;5.32;;
7051;SDS011;3567;52.444;13.556;2023-06-10T10:09:21;6.20;;;5.53;;
7051;SDS011;3567;52.444;13.556;2023-06-10T10:11:46;7.53;;;5.28;;
7051;SDS011;3567;52.444;13.556;2023-06-10T10:14:13;7.50;;;5.72;;
7051;SDS011;3567;52.444;13.556;2023-06-10T10:16:41;6.70;;;6.10;;
7051;SDS011;3567;52.444;13.556;2023-06-10T10:19:10;5.45;;;4.95;;
7051;SDS011;3567;52.444;13.556;2023-06-10T10:21:44;5.43;;;5.03;;
7051;SDS011;3567;52.444;13.556;2023-06-10T10:24:23;8.57;;;5.78;;
7051;SDS011;3567;52.444;13.556;2023-06-10T10:26:51;9.73;;;5.28;;
7051;SDS011;3567;52.444;13.556;2023-06-10T10:32:01;9.18;;;5.30;;
7051;SDS011;3567;52.444;13.556;2023-06-10T10:34:35;6.78;;;4.95;;
7051;SDS011;3567;52.444;13.556;2023-06-10T10:37:04;5.18;;;4.72;;
7051;SDS011;3567;52.444;13.556;2023-06-10T10:39:29;7.07;;;4.43;;
7051;SDS011;3567;52.444;13.556;2023-06-10T10:41:57;4.80;;;4.40;;
7051;SDS011;3567;52.444;13.556;2023-06-10T10:44:23;5.78;;;5.05;;
7051;SDS011;3567;52.444;13.556;2023-06-10T10:46:49;4.30;;;3.90;;
7051;SDS011;3567;52.444;13.556;2023-06-10T10:49:16;4.32;;;4.03;;
7051;SDS011;3567;52.444;13.556;2023-06-10T10:51:58;8.57;;;4.43;;
7051;SDS011;3567;52.444;13.556;2023-06-10T10:54:34;6.30;;;4.53;;
7051;SDS011;3567;52.444;13.556;2023-06-10T11:00:04;4.25;;;3.20;;
7051;SDS011;3567;52.444;13.556;2023-06-10T11:02:32;4.40;;;4.00;;
7051;SDS011;3567;52.444;13.556;2023-06-10T11:04:57;5.45;;;3.63;;
7051;SDS011;3567;52.444;13.556;2023-06-10T11:07:24;5.05;;;4.55;;
7051;SDS011;3567;52.444;13.556;2023-06-10T11:12:33;4.32;;;4.03;;
7051;SDS011;3567;52.444;13.556;2023-06-10T11:15:08;6.13;;;4.55;;
7051;SDS011;3567;52.444;13.556;2023-06-10T11:17:33;4.00;;;3.70;;
7051;SDS011;3567;52.444;13.556;2023-06-10T11:19:59;4.30;;;4.00;;
7051;SDS011;3567;52.444;13.556;2023-06-10T11:22:25;5.05;;;3.83;;
7051;SDS011;3567;52.444;13.556;2023-06-10T11:24:50;4.25;;;3.88;;
7051;SDS011;3567;52.444;13.556;2023-06-10T11:27:17;5.22;;;4.72;;
7051;SDS011;3567;52.444;13.556;2023-06-10T11:29:57;4.63;;;4.20;;
7051;SDS011;3567;52.444;13.556;2023-06-10T11:32:26;5.07;;;4.50;;
7051;SDS011;3567;52.444;13.556;2023-06-10T11:34:56;4.85;;;4.45;;
7051;SDS011;3567;52.444;13.556;2023-06-10T11:37:21;5.05;;;4.68;;
7051;SDS011;3567;52.444;13.556;2023-06-10T11:39:47;6.88;;;4.15;;
7051;SDS011;3567;52.444;13.556;2023-06-10T11:42:16;5.35;;;4.00;;
7051;SDS011;3567;52.444;13.556;2023-06-10T11:44:47;4.20;;;3.70;;
7051;SDS011;3567;52.444;13.556;2023-06-10T11:47:14;5.38;;;2.90;;
7051;SDS011;3567;52.444;13.556;2023-06-10T11:49:39;4.13;;;3.72;;
7051;SDS011;3567;52.444;13.556;2023-06-10T11:52:05;4.60;;;3.17;;
7051;SDS011;3567;52.444;13.556;2023-06-10T11:54:30;4.15;;;3.75;;
7051;SDS011;3567;52.444;13.556;2023-06-10T11:56:59;6.05;;;3.70;;
7051;SDS011;3567;52.444;13.556;2023-06-10T11:59:28;5.60;;;3.35;;
7051;SDS011;3567;52.444;13.556;2023-06-10T12:01:54;3.60;;;3.30;;
7051;SDS011;3567;52.444;13.556;2023-06-10T12:04:19;9.20;;;3.88;;
7051;SDS011;3567;52.444;13.556;2023-06-10T12:06:47;4.63;;;3.78;;
7051;SDS011;3567;52.444;13.556;2023-06-10T12:09:25;5.45;;;4.13;;
7051;SDS011;3567;52.444;13.556;2023-06-10T12:11:53;4.60;;;4.25;;
7051;SDS011;3567;52.444;13.556;2023-06-10T12:20:00;8.15;;;4.82;;
7051;SDS011;3567;52.444;13.556;2023-06-10T12:22:26;5.32;;;4.82;;
7051;SDS011;3567;52.444;13.556;2023-06-10T12:27:27;6.07;;;5.47;;
7051;SDS011;3567;52.444;13.556;2023-06-10T12:29:54;5.60;;;5.20;;
7051;SDS011;3567;52.444;13.556;2023-06-10T12:32:21;5.15;;;4.82;;
7051;SDS011;3567;52.444;13.556;2023-06-10T12:34:54;6.45;;;5.05;;
7051;SDS011;3567;52.444;13.556;2023-06-10T12:37:28;5.75;;;5.15;;
7051;SDS011;3567;52.444;13.556;2023-06-10T12:39:53;5.43;;;4.93;;
7051;SDS011;3567;52.444;13.556;2023-06-10T12:42:21;5.45;;;5.03;;
7051;SDS011;3567;52.444;13.556;2023-06-10T12:44:53;5.55;;;4.63;;
7051;SDS011;3567;52.444;13.556;2023-06-10T12:47:19;5.80;;;4.88;;
7051;SDS011;3567;52.444;13.556;2023-06-10T12:49:44;5.25;;;4.75;;
7051;SDS011;3567;52.444;13.556;2023-06-10T12:52:10;6.88;;;5.00;;
7051;SDS011;3567;52.444;13.556;2023-06-10T12:54:35;6.97;;;5.38;;
7051;SDS011;3567;52.444;13.556;2023-06-10T12:57:01;7.75;;;5.35;;
7051;SDS011;3567;52.444;13.556;2023-06-10T12:59:27;5.63;;;4.97;;
7051;SDS011;3567;52.444;13.556;2023-06-10T13:01:53;5.40;;;4.97;;
7051;SDS011;3567;52.444;13.556;2023-06-10T13:04:20;5.15;;;4.68;;
7051;SDS011;3567;52.444;13.556;2023-06-10T13:06:46;8.55;;;5.38;;
7051;SDS011;3567;52.444;13.556;2023-06-10T13:09:12;5.25;;;4.80;;
7051;SDS011;3567;52.444;13.556;2023-06-10T13:11:38;5.45;;;4.95;;
7051;SDS011;3567;52.444;13.556;2023-06-10T13:14:04;5.20;;;4.80;;
7051;SDS011;3567;52.444;13.556;2023-06-10T13:16:31;6.63;;;4.50;;
7051;SDS011;3567;52.444;13.556;2023-06-10T13:18:57;4.45;;;4.05;;
7051;SDS011;3567;52.444;13.556;2023-06-10T13:21:23;4.38;;;3.97;;
7051;SDS011;3567;52.444;13.556;2023-06-10T13:23:48;3.85;;;3.22;;
7051;SDS011;3567;52.444;13.556;2023-06-10T13:26:14;4.25;;;3.95;;
7051;SDS011;3567;52.444;13.556;2023-06-10T13:28:41;3.92;;;3.55;;
7051;SDS011;3567;52.444;13.556;2023-06-10T13:31:07;4.72;;;4.28;;
7051;SDS011;3567;52.444;13.556;2023-06-10T13:33:32;7.18;;;4.47;;
7051;SDS011;3567;52.444;13.556;2023-06-10T13:35:58;5.80;;;4.85;;
7051;SDS011;3567;52.444;13.556;2023-06-10T13:38:23;7.38;;;4.78;;
7051;SDS011;3567;52.444;13.556;2023-06-10T13:40:48;4.78;;;4.47;;
7051;SDS011;3567;52.444;13.556;2023-06-10T13:43:14;6.03;;;4.53;;
7051;SDS011;3567;52.444;13.556;2023-06-10T13:45:40;7.72;;;4.45;;
7051;SDS011;3567;52.444;13.556;2023-06-10T13:48:05;4.65;;;4.28;;
7051;SDS011;3567;52.444;13.556;2023-06-10T13:50:31;4.57;;;4.18;;
7051;SDS011;3567;52.444;13.556;2023-06-10T13:52:56;4.63;;;3.83;;
7051;SDS011;3567;52.444;13.556;2023-06-10T13:55:22;4.10;;;3.83;;
7051;SDS011;3567;52.444;13.556;2023-06-10T13:57:49;5.28;;;4.03;;
7051;SDS011;3567;52.444;13.556;2023-06-10T14:00:14;4.15;;;3.67;;
7051;SDS011;3567;52.444;13.556;2023-06-10T14:02:40;5.47;;;3.72;;
7051;SDS011;3567;52.444;13.556;2023-06-10T14:05:05;4.43;;;4.03;;
7051;SDS011;3567;52.444;13.556;2023-06-10T14:07:31;5.03;;;4.20;;
7051;SDS011;3567;52.444;13.556;2023-06-10T14:09:56;5.25;;;4.10;;
7051;SDS011;3567;52.444;13.556;2023-06-10T14:12:22;5.10;;;4.70;;
7051;SDS011;3567;52.444;13.556;2023-06-10T14:14:48;5.85;;;4.45;;
7051;SDS011;3567;52.444;13.556;2023-06-10T14:17:13;5.15;;;4.68;;
7051;SDS011;3567;52.444;13.556;2023-06-10T14:19:38;4.78;;;3.83;;
7051;SDS011;3567;52.444;13.556;2023-06-10T14:22:05;6.38;;;4.72;;
7051;SDS011;3567;52.444;13.556;2023-06-10T14:24:31;5.72;;;4.45;;
7051;SDS011;3567;52.444;13.556;2023-06-10T14:26:57;7.20;;;4.32;;
7051;SDS011;3567;52.444;13.556;2023-06-10T14:29:23;6.50;;;4.45;;
7051;SDS011;3567;52.444;13.556;2023-06-10T14:31:49;4.28;;;3.97;;
7051;SDS011;3567;52.444;13.556;2023-06-10T14:34:14;4.65;;;4.32;;
7051;SDS011;3567;52.444;13.556;2023-06-10T14:36:39;4.85;;;4.45;;
7051;SDS011;3567;52.444;13.556;2023-06-10T14:39:05;6.90;;;4.60;;
7051;SDS011;3567;52.444;13.556;2023-06-10T14:41:31;6.18;;;4.78;;
7051;SDS011;3567;52.444;13.556;2023-06-10T14:43:56;5.93;;;4.30;;
7051;SDS011;3567;52.444;13.556;2023-06-10T14:46:21;7.53;;;4.90;;
7051;SDS011;3567;52.444;13.556;2023-06-10T14:48:47;5.25;;;4.78;;
7051;SDS011;3567;52.444;13.556;2023-06-10T14:51:12;5.00;;;4.60;;
7051;SDS011;3567;52.444;13.556;2023-06-10T14:53:38;5.50;;;4.38;;
7051;SDS011;3567;52.444;13.556;2023-06-10T14:56:03;5.75;;;4.18;;
7051;SDS011;3567;52.444;13.556;2023-06-10T14:58:29;4.53;;;3.72;;
7051;SDS011;3567;52.444;13.556;2023-06-10T15:00:54;5.15;;;4.00;;
7051;SDS011;3567;52.444;13.556;2023-06-10T15:03:20;8.00;;;4.97;;
7051;SDS011;3567;52.444;13.556;2023-06-10T15:05:45;5.80;;;4.38;;
7051;SDS011;3567;52.444;13.556;2023-06-10T15:08:11;6.68;;;4.50;;
7051;SDS011;3567;52.444;13.556;2023-06-10T15:10:36;10.32;;;4.88;;
7051;SDS011;3567;52.444;13.556;2023-06-10T15:13:02;5.75;;;4.90;;